createdAt,value
2022-09-04T00:01:14.951Z,28.10
2022-09-04T00:03:48.822Z,28.10
2022-09-04T00:06:20.568Z,28.20
2022-09-04T00:09:09.820Z,28.20
2022-09-04T00:11:47.765Z,28.20
2022-09-04T00:14:19.230Z,28.10
2022-09-04T00:16:57.371Z,28.10
2022-09-04T00:19:32.045Z,28.00
2022-09-04T00:22:02.087Z,28.00
2022-09-04T00:24:33.656Z,27.90
2022-09-04T00:27:08.393Z,27.70
2022-09-04T00:29:48.973Z,27.80
2022-09-04T00:32:23.271Z,27.80
2022-09-04T00:35:04.888Z,27.80
2022-09-04T00:37:37.123Z,27.80
2022-09-04T00:40:10.009Z,27.60
2022-09-04T00:42:55.629Z,27.70
2022-09-04T00:45:36.295Z,27.60
2022-09-04T00:48:17.471Z,27.60
2022-09-04T00:51:11.256Z,27.60
2022-09-04T00:53:56.301Z,27.60
2022-09-04T00:56:55.197Z,27.60
2022-09-04T00:59:43.343Z,27.60
2022-09-04T01:02:22.128Z,27.70
2022-09-04T01:05:01.741Z,27.70
2022-09-04T01:07:47.554Z,27.80
2022-09-04T01:10:35.232Z,27.80
2022-09-04T01:13:11.342Z,27.80
2022-09-04T01:15:46.083Z,27.80
2022-09-04T01:18:19.669Z,27.80
2022-09-04T01:21:16.438Z,27.80
2022-09-04T01:23:57.406Z,27.60
2022-09-04T01:26:35.719Z,27.70
2022-09-04T01:29:17.333Z,27.80
2022-09-04T01:31:51.607Z,27.90
2022-09-04T01:34:41.165Z,27.80
2022-09-04T01:37:28.502Z,27.80
2022-09-04T01:40:17.191Z,27.80
2022-09-04T01:42:51.207Z,27.90
2022-09-04T01:45:30.205Z,28.00
2022-09-04T01:48:03.993Z,28.00
2022-09-04T01:50:33.613Z,28.00
2022-09-04T01:53:08.362Z,27.90
2022-09-04T01:55:44.752Z,27.90
2022-09-04T01:58:19.679Z,27.90
2022-09-04T02:00:59.275Z,27.50
2022-09-04T02:03:39.417Z,27.60
2022-09-04T02:06:22.628Z,27.60
2022-09-04T02:09:01.564Z,27.60
2022-09-04T02:11:31.970Z,27.70
2022-09-04T02:14:17.813Z,27.80
2022-09-04T02:17:02.812Z,27.90
2022-09-04T02:19:42.620Z,28.00
2022-09-04T02:22:23.163Z,28.00
2022-09-04T02:24:58.091Z,28.10
2022-09-04T02:27:33.096Z,28.00
2022-09-04T02:30:05.438Z,27.90
2022-09-04T02:32:38.543Z,27.90
2022-09-04T02:35:15.359Z,27.80
2022-09-04T02:37:55.956Z,27.80
2022-09-04T02:40:32.510Z,27.80
2022-09-04T02:43:16.560Z,27.60
2022-09-04T02:45:56.219Z,27.70
2022-09-04T02:48:35.156Z,27.70
2022-09-04T02:51:16.157Z,27.50
2022-09-04T02:53:53.705Z,27.50
2022-09-04T02:56:31.342Z,27.40
2022-09-04T02:59:16.119Z,27.20
2022-09-04T03:01:53.357Z,27.20
2022-09-04T03:04:28.252Z,27.20
2022-09-04T03:07:02.406Z,27.20
2022-09-04T03:09:38.407Z,27.10
2022-09-04T03:12:26.830Z,27.10
2022-09-04T03:15:03.617Z,27.30
2022-09-04T03:17:41.552Z,27.00
2022-09-04T03:20:15.916Z,27.00
2022-09-04T03:22:49.886Z,26.90
2022-09-04T03:25:51.894Z,27.00
2022-09-04T03:28:34.373Z,27.00
2022-09-04T03:31:27.632Z,27.10
2022-09-04T03:34:12.335Z,27.20
2022-09-04T03:36:50.421Z,27.20
2022-09-04T03:39:26.973Z,27.10
2022-09-04T03:42:05.440Z,27.10
2022-09-04T03:44:45.983Z,27.10
2022-09-04T03:47:21.241Z,27.10
2022-09-04T03:49:56.061Z,27.00
2022-09-04T03:52:33.248Z,27.10
2022-09-04T03:55:21.966Z,27.20
2022-09-04T03:58:08.876Z,27.20
2022-09-04T04:00:47.347Z,27.10
2022-09-04T04:03:34.130Z,27.00
2022-09-04T04:06:14.814Z,27.10
2022-09-04T04:09:11.808Z,27.00
2022-09-04T04:12:00.927Z,26.80
2022-09-04T04:14:44.223Z,26.80
2022-09-04T04:17:38.750Z,26.80
2022-09-04T04:20:24.543Z,26.60
2022-09-04T04:23:29.295Z,26.50
2022-09-04T04:26:07.629Z,26.40
2022-09-04T04:28:59.907Z,26.20
2022-09-04T04:31:44.552Z,26.20
2022-09-04T04:34:22.529Z,26.20
2022-09-04T04:36:56.656Z,26.20
2022-09-04T04:39:35.837Z,26.10
2022-09-04T04:42:18.866Z,26.20
2022-09-04T04:45:15.036Z,26.10
2022-09-04T04:48:01.645Z,26.10
2022-09-04T04:50:40.150Z,26.10
2022-09-04T04:53:20.494Z,26.20
2022-09-04T04:55:57.283Z,25.90
2022-09-04T04:58:40.364Z,26.10
2022-09-04T05:01:16.006Z,26.10
2022-09-04T05:03:57.547Z,26.00
2022-09-04T05:06:36.005Z,26.10
2022-09-04T05:09:14.710Z,26.00
2022-09-04T05:11:54.410Z,25.90
2022-09-04T05:14:37.674Z,26.00
2022-09-04T05:17:14.858Z,26.20
2022-09-04T05:19:52.434Z,26.50
2022-09-04T05:22:28.056Z,26.70
2022-09-04T05:25:08.942Z,26.60
2022-09-04T05:27:52.672Z,26.70
2022-09-04T05:30:24.618Z,26.90
2022-09-04T05:32:59.670Z,27.00
2022-09-04T05:35:36.229Z,27.20
2022-09-04T05:38:12.042Z,27.20
2022-09-04T05:40:56.288Z,27.20
2022-09-04T05:43:37.080Z,27.30
2022-09-04T05:46:13.168Z,27.40
2022-09-04T05:48:46.878Z,27.50
2022-09-04T05:51:41.884Z,27.50
2022-09-04T05:54:33.535Z,27.40
2022-09-04T05:57:15.174Z,27.40
2022-09-04T05:59:59.317Z,27.30
2022-09-04T06:02:50.266Z,27.10
2022-09-04T06:05:30.898Z,27.10
2022-09-04T06:08:07.873Z,27.20
2022-09-04T06:10:47.658Z,27.30
2022-09-04T06:13:32.553Z,27.30
2022-09-04T06:16:17.670Z,27.40
2022-09-04T06:19:24.727Z,27.20
2022-09-04T06:22:28.688Z,27.20
2022-09-04T06:25:20.524Z,27.20
2022-09-04T06:28:20.649Z,27.10
2022-09-04T06:30:57.326Z,27.20
2022-09-04T06:33:36.519Z,27.30
2022-09-04T06:36:16.753Z,27.30
2022-09-04T06:39:01.447Z,27.40
2022-09-04T06:41:47.489Z,27.30
2022-09-04T06:44:28.872Z,27.30
2022-09-04T06:47:06.717Z,27.30
2022-09-04T06:49:46.784Z,27.20
2022-09-04T06:52:24.086Z,27.20
2022-09-04T06:55:00.465Z,27.00
2022-09-04T06:57:48.042Z,26.90
2022-09-04T07:00:18.004Z,27.00
2022-09-04T07:03:14.809Z,27.20
2022-09-04T07:05:54.611Z,27.10
2022-09-04T07:08:35.267Z,27.10
2022-09-04T07:11:15.837Z,27.20
2022-09-04T07:14:00.098Z,27.30
2022-09-04T07:16:42.746Z,27.30
2022-09-04T07:19:35.856Z,27.20
2022-09-04T07:22:24.558Z,27.40
2022-09-04T07:25:10.799Z,27.40
2022-09-04T07:27:55.796Z,27.50
2022-09-04T07:30:26.035Z,27.60
2022-09-04T07:32:58.266Z,27.70
2022-09-04T07:35:36.293Z,27.90
2022-09-04T07:38:15.626Z,28.00
2022-09-04T07:40:47.896Z,28.00
2022-09-04T07:43:22.868Z,27.70
2022-09-04T07:45:58.594Z,27.80
2022-09-04T07:48:33.583Z,27.70
2022-09-04T07:51:10.943Z,27.70
2022-09-04T07:54:00.038Z,27.90
2022-09-04T07:56:45.496Z,28.10
2022-09-04T07:59:32.512Z,28.30
2022-09-04T08:02:16.815Z,28.30
2022-09-04T08:05:22.823Z,28.30
2022-09-04T08:08:24.141Z,28.60
2022-09-04T08:11:14.486Z,29.00
2022-09-04T08:14:10.489Z,29.10
2022-09-04T08:16:44.652Z,29.30
2022-09-04T08:19:23.130Z,29.30
2022-09-04T08:21:54.009Z,29.50
2022-09-04T08:24:58.970Z,29.60
2022-09-04T08:27:54.458Z,29.60
2022-09-04T08:30:22.980Z,29.70
2022-09-04T08:33:21.988Z,29.60
2022-09-04T08:35:59.740Z,29.70
2022-09-04T08:38:47.733Z,29.60
2022-09-04T08:41:51.347Z,29.60
2022-09-04T08:45:01.079Z,29.50
2022-09-04T08:48:12.944Z,29.70
2022-09-04T08:51:13.333Z,29.90
2022-09-04T08:54:33.115Z,30.30
2022-09-04T08:57:36.061Z,30.20
2022-09-04T09:00:10.732Z,30.20
2022-09-04T09:03:11.035Z,30.30
2022-09-04T09:06:13.151Z,30.60
2022-09-04T09:09:10.702Z,30.90
2022-09-04T09:12:09.040Z,31.00
2022-09-04T09:15:18.445Z,30.90
2022-09-04T09:18:02.171Z,31.00
2022-09-04T09:20:32.984Z,31.30
2022-09-04T09:23:19.348Z,31.30
2022-09-04T09:26:06.105Z,31.30
2022-09-04T09:29:14.204Z,31.30
2022-09-04T09:32:14.289Z,31.30
2022-09-04T09:35:23.461Z,31.30
2022-09-04T09:38:30.199Z,31.20
2022-09-04T09:41:39.069Z,31.20
2022-09-04T09:44:41.037Z,31.40
2022-09-04T09:47:48.252Z,31.50
2022-09-04T09:50:42.394Z,31.40
2022-09-04T09:54:00.216Z,31.40
2022-09-04T09:57:01.502Z,31.30
2022-09-04T10:00:06.366Z,31.20
2022-09-04T10:03:27.465Z,31.40
2022-09-04T10:06:27.169Z,31.10
2022-09-04T10:09:39.086Z,31.40
2022-09-04T10:12:30.830Z,31.40
2022-09-04T10:15:32.349Z,31.40
2022-09-04T10:18:24.010Z,31.40
2022-09-04T10:21:17.070Z,31.20
2022-09-04T10:24:07.004Z,31.10
2022-09-04T10:27:02.864Z,31.50
2022-09-04T10:29:50.436Z,31.50
2022-09-04T10:32:39.633Z,31.80
2022-09-04T10:35:21.997Z,31.80
2022-09-04T10:38:17.704Z,32.00
2022-09-04T10:41:02.311Z,32.30
2022-09-04T10:43:50.670Z,32.30
2022-09-04T10:46:26.212Z,32.30
2022-09-04T10:49:15.453Z,32.50
2022-09-04T10:52:25.493Z,32.40
2022-09-04T10:55:27.791Z,32.00
2022-09-04T10:58:17.115Z,32.40
2022-09-04T11:01:03.441Z,32.60
2022-09-04T11:03:56.033Z,32.50
2022-09-04T11:06:52.744Z,32.60
2022-09-04T11:09:44.389Z,32.60
2022-09-04T11:12:41.309Z,32.80
2022-09-04T11:15:25.138Z,32.80
2022-09-04T11:18:13.663Z,32.80
2022-09-04T11:21:05.763Z,32.90
2022-09-04T11:24:08.689Z,32.60
2022-09-04T11:27:09.918Z,32.90
2022-09-04T11:29:51.285Z,32.90
2022-09-04T11:32:52.783Z,33.10
2022-09-04T11:36:15.007Z,33.10
2022-09-04T11:39:35.185Z,32.90
2022-09-04T11:42:27.647Z,32.70
2022-09-04T11:45:16.797Z,32.70
2022-09-04T11:48:27.628Z,32.40
2022-09-04T11:51:28.803Z,32.60
2022-09-04T11:54:34.903Z,32.90
2022-09-04T11:57:10.380Z,32.50
2022-09-04T12:00:02.618Z,32.70
2022-09-04T12:03:13.859Z,32.40
2022-09-04T12:06:00.049Z,32.30
2022-09-04T12:09:00.576Z,32.50
2022-09-04T12:12:02.058Z,32.80
2022-09-04T12:14:55.407Z,33.00
2022-09-04T12:18:10.833Z,33.00
2022-09-04T12:21:15.670Z,32.40
2022-09-04T12:24:23.738Z,32.90
2022-09-04T12:27:24.192Z,32.90
2022-09-04T12:30:06.382Z,32.70
2022-09-04T12:33:12.717Z,33.10
2022-09-04T12:36:25.027Z,33.10
2022-09-04T12:39:21.606Z,32.80
2022-09-04T12:41:58.815Z,33.00
2022-09-04T12:44:41.159Z,32.70
2022-09-04T12:47:25.640Z,32.40
2022-09-04T12:50:22.569Z,31.80
2022-09-04T12:53:15.166Z,32.10
2022-09-04T12:55:52.818Z,32.00
2022-09-04T12:58:33.762Z,32.50
2022-09-04T13:01:13.772Z,32.70
2022-09-04T13:03:50.710Z,32.70
2022-09-04T13:06:28.391Z,32.70
2022-09-04T13:09:11.776Z,32.70
2022-09-04T13:11:50.427Z,32.60
2022-09-04T13:14:41.650Z,32.80
2022-09-04T13:17:17.810Z,32.70
2022-09-04T13:19:54.151Z,32.70
2022-09-04T13:22:32.047Z,32.60
2022-09-04T13:25:10.578Z,32.50
2022-09-04T13:27:57.315Z,32.20
2022-09-04T13:30:26.729Z,32.00
2022-09-04T13:33:09.250Z,31.60
2022-09-04T13:35:51.627Z,31.40
2022-09-04T13:38:51.713Z,31.50
2022-09-04T13:41:40.406Z,31.50
2022-09-04T13:44:34.203Z,31.60
2022-09-04T13:47:08.059Z,31.70
2022-09-04T13:49:45.320Z,31.70
2022-09-04T13:52:24.259Z,31.80
2022-09-04T13:54:59.505Z,31.70
2022-09-04T13:57:32.941Z,31.90
2022-09-04T14:00:03.850Z,31.90
2022-09-04T14:02:34.553Z,32.00
2022-09-04T14:05:09.247Z,31.90
2022-09-04T14:07:44.668Z,31.80
2022-09-04T14:10:17.855Z,31.70
2022-09-04T14:13:04.257Z,31.50
2022-09-04T14:16:02.451Z,31.60
2022-09-04T14:18:55.605Z,31.50
2022-09-04T14:21:33.399Z,31.70
2022-09-04T14:24:07.951Z,31.80
2022-09-04T14:26:47.187Z,31.60
2022-09-04T14:29:25.549Z,31.60
2022-09-04T14:32:05.899Z,31.80
2022-09-04T14:34:45.764Z,31.70
2022-09-04T14:37:30.676Z,31.70
2022-09-04T14:40:10.610Z,31.60
2022-09-04T14:42:49.139Z,31.70
2022-09-04T14:45:35.286Z,31.80
2022-09-04T14:48:07.073Z,31.50
2022-09-04T14:50:48.966Z,31.70
2022-09-04T14:53:23.854Z,31.70
2022-09-04T14:56:18.939Z,31.60
2022-09-04T14:58:50.930Z,31.60
2022-09-04T15:01:22.244Z,31.60
2022-09-04T15:03:57.208Z,31.50
2022-09-04T15:06:32.793Z,31.40
2022-09-04T15:09:25.212Z,31.40
2022-09-04T15:12:21.061Z,31.30
2022-09-04T15:14:48.379Z,31.30
2022-09-04T15:17:30.216Z,31.40
2022-09-04T15:20:03.171Z,31.50
2022-09-04T15:22:38.651Z,31.60
2022-09-04T15:25:09.206Z,31.60
2022-09-04T15:27:46.983Z,31.60
2022-09-04T15:30:21.574Z,31.70
2022-09-04T15:33:03.632Z,31.80
2022-09-04T15:35:33.908Z,31.90
2022-09-04T15:38:08.217Z,32.00
2022-09-04T15:40:38.962Z,31.90
2022-09-04T15:43:18.376Z,31.60
2022-09-04T15:45:49.457Z,31.50
2022-09-04T15:48:29.440Z,31.50
2022-09-04T15:51:05.743Z,31.50
2022-09-04T15:53:36.486Z,31.70
2022-09-04T15:56:10.282Z,31.60
2022-09-04T15:58:53.191Z,31.60
2022-09-04T16:01:26.940Z,31.60
2022-09-04T16:04:12.502Z,31.60
2022-09-04T16:06:47.955Z,31.60
2022-09-04T16:09:23.924Z,31.60
2022-09-04T16:12:00.556Z,31.60
2022-09-04T16:14:34.330Z,31.50
2022-09-04T16:17:11.787Z,31.60
2022-09-04T16:19:49.959Z,31.60
2022-09-04T16:22:36.303Z,31.70
2022-09-04T16:25:11.779Z,31.70
2022-09-04T16:27:45.272Z,31.60
2022-09-04T16:30:30.107Z,31.60
2022-09-04T16:32:59.515Z,31.70
2022-09-04T16:35:34.152Z,31.70
2022-09-04T16:38:08.471Z,31.60
2022-09-04T16:40:41.703Z,31.60
2022-09-04T16:43:21.663Z,31.60
2022-09-04T16:45:54.986Z,31.50
2022-09-04T16:48:34.960Z,31.50
2022-09-04T16:51:39.034Z,31.50
2022-09-04T16:54:07.652Z,31.50
2022-09-04T16:56:40.452Z,31.60
2022-09-04T16:59:23.541Z,31.60
2022-09-04T17:02:02.960Z,31.60
2022-09-04T17:04:40.319Z,31.60
2022-09-04T17:07:16.943Z,31.50
2022-09-04T17:09:56.597Z,31.50
2022-09-04T17:12:39.032Z,31.40
2022-09-04T17:15:18.429Z,31.30
2022-09-04T17:17:48.436Z,31.20
2022-09-04T17:20:33.636Z,31.30
2022-09-04T17:29:00.113Z,31.40
2022-09-04T17:29:16.011Z,31.30
2022-09-04T17:29:34.920Z,31.30
2022-09-04T17:32:00.945Z,31.30
2022-09-04T17:40:35.958Z,31.30
2022-09-04T17:40:50.007Z,31.30
2022-09-04T17:41:40.114Z,31.20
2022-09-04T17:44:03.028Z,31.30
2022-09-04T17:46:37.316Z,31.30
2022-09-04T17:49:29.323Z,31.30
2022-09-04T17:52:07.357Z,31.40
2022-09-04T17:54:49.231Z,31.50
2022-09-04T17:57:28.499Z,31.40
2022-09-04T18:00:03.943Z,31.40
2022-09-04T18:02:39.721Z,31.30
2022-09-04T18:05:16.887Z,31.40
2022-09-04T18:08:08.139Z,31.30
2022-09-04T18:10:49.478Z,31.20
2022-09-04T18:13:37.830Z,31.30
2022-09-04T18:16:20.085Z,31.30
2022-09-04T18:18:52.219Z,31.20
2022-09-04T18:21:27.113Z,31.30
2022-09-04T18:24:02.617Z,31.30
2022-09-04T18:26:41.674Z,31.30
2022-09-04T18:33:34.473Z,31.30
2022-09-04T18:37:24.422Z,31.30
2022-09-04T18:37:24.927Z,31.30
2022-09-04T18:38:40.259Z,31.30
2022-09-04T18:46:38.545Z,31.40
2022-09-04T18:50:33.198Z,31.30
2022-09-04T18:50:33.815Z,31.20
2022-09-04T18:50:39.226Z,31.10
2022-09-04T18:53:08.221Z,31.10
2022-09-04T18:55:44.118Z,31.10
2022-09-04T18:58:42.551Z,31.10
2022-09-04T19:01:26.789Z,31.00
2022-09-04T19:03:59.546Z,31.10
2022-09-04T19:06:34.935Z,31.10
2022-09-04T19:09:13.152Z,31.10
2022-09-04T19:11:48.741Z,31.00
2022-09-04T19:14:20.600Z,31.10
2022-09-04T19:16:53.538Z,31.10
2022-09-04T19:19:36.396Z,31.10
2022-09-04T19:22:11.835Z,31.10
2022-09-04T19:24:49.978Z,31.00
2022-09-04T19:27:28.431Z,31.10
2022-09-04T19:30:19.170Z,31.00
2022-09-04T19:33:02.877Z,31.00
2022-09-04T19:35:40.559Z,31.00
2022-09-04T19:43:48.048Z,30.90
2022-09-04T19:46:04.809Z,30.90
2022-09-04T19:46:08.365Z,30.90
2022-09-04T19:47:28.410Z,30.90
2022-09-04T19:53:19.046Z,30.90
2022-09-04T19:53:31.540Z,30.90
2022-09-04T19:55:47.294Z,30.90
2022-09-04T19:58:19.401Z,31.10
2022-09-04T20:00:51.193Z,31.10
2022-09-04T20:03:30.166Z,31.00
2022-09-04T20:06:19.944Z,31.00
2022-09-04T20:08:54.941Z,31.00
2022-09-04T20:11:36.028Z,30.80
2022-09-04T20:14:14.198Z,30.90
2022-09-04T20:16:51.926Z,30.90
2022-09-04T20:19:28.582Z,30.90
2022-09-04T20:22:02.355Z,31.00
2022-09-04T20:24:40.584Z,31.00
2022-09-04T20:27:15.773Z,31.00
2022-09-04T20:29:55.304Z,30.90
2022-09-04T20:32:27.341Z,31.00
2022-09-04T20:35:13.018Z,30.90
2022-09-04T20:37:53.751Z,30.60
2022-09-04T20:40:32.955Z,30.60
2022-09-04T20:43:21.037Z,30.70
2022-09-04T20:49:13.979Z,30.70
2022-09-04T20:52:50.226Z,30.70
2022-09-04T20:53:05.702Z,30.50
2022-09-04T20:55:08.183Z,30.50
2022-09-04T21:03:08.031Z,30.30
2022-09-04T21:03:19.847Z,29.90
2022-09-04T21:04:00.893Z,29.90
2022-09-04T21:06:34.695Z,29.80
2022-09-04T21:09:18.770Z,29.90
2022-09-04T21:11:50.699Z,30.10
2022-09-04T21:14:28.621Z,30.20
2022-09-04T21:17:35.212Z,30.30
2022-09-04T21:20:36.506Z,30.30
2022-09-04T21:24:10.250Z,30.40
2022-09-04T21:27:02.724Z,30.40
2022-09-04T21:29:47.568Z,30.50
2022-09-04T21:32:30.926Z,30.50
2022-09-04T21:35:08.022Z,30.50
2022-09-04T21:37:45.983Z,30.60
2022-09-04T21:40:54.777Z,30.60
2022-09-04T21:43:39.733Z,30.70
2022-09-04T21:46:41.638Z,30.80
2022-09-04T21:49:34.040Z,30.80
2022-09-04T21:52:24.665Z,30.80
2022-09-04T21:56:21.476Z,30.70
2022-09-04T22:02:29.105Z,30.90
2022-09-04T22:02:37.958Z,30.80
2022-09-04T22:04:15.841Z,30.70
2022-09-04T22:07:20.908Z,30.80
2022-09-04T22:13:28.960Z,30.70
2022-09-04T22:13:41.294Z,30.50
2022-09-04T22:16:01.843Z,30.40
2022-09-04T22:18:43.537Z,30.10
2022-09-04T22:21:25.553Z,29.90
2022-09-04T22:24:45.139Z,29.60
2022-09-04T22:27:56.535Z,29.60
2022-09-04T22:30:30.963Z,29.10
2022-09-04T22:33:32.475Z,29.10
2022-09-04T22:36:47.585Z,29.00
2022-09-04T22:39:57.505Z,28.80
2022-09-04T22:42:45.081Z,29.00
2022-09-04T22:45:39.824Z,28.70
2022-09-04T22:48:43.982Z,28.80
2022-09-04T22:51:35.837Z,29.10
2022-09-04T22:54:30.052Z,29.10
2022-09-04T22:57:03.459Z,29.30
2022-09-04T23:00:03.586Z,29.30
2022-09-04T23:03:10.695Z,29.10
2022-09-04T23:06:16.170Z,29.40
2022-09-04T23:13:43.266Z,29.50
2022-09-04T23:13:48.525Z,29.50
2022-09-04T23:15:33.639Z,29.60
2022-09-04T23:22:44.364Z,29.50
2022-09-04T23:26:38.180Z,29.60
2022-09-04T23:26:49.608Z,29.60
2022-09-04T23:27:40.935Z,29.60
2022-09-04T23:30:25.017Z,29.50
2022-09-04T23:33:28.450Z,29.50
2022-09-04T23:36:11.374Z,29.30
2022-09-04T23:38:55.771Z,29.30
2022-09-04T23:41:53.049Z,29.30
2022-09-04T23:44:54.101Z,29.20
2022-09-04T23:48:03.919Z,29.30
2022-09-04T23:50:44.227Z,29.10
2022-09-04T23:53:21.553Z,29.10
2022-09-04T23:56:20.851Z,29.10
2022-09-04T23:59:25.706Z,29.10
